sensor_id;sensor_type;location;lat;lon;timestamp;temperature;humidity
24162;DHT22;12318;51.262;7.066;2022-07-15T00:00:02;14.80;99.90
24162;DHT22;12318;51.262;7.066;2022-07-15T00:02:28;14.80;99.90
24162;DHT22;12318;51.262;7.066;2022-07-15T00:05:11;14.90;99.90
24162;DHT22;12318;51.262;7.066;2022-07-15T00:07:37;14.90;99.90
24162;DHT22;12318;51.262;7.066;2022-07-15T00:10:04;14.90;99.90
24162;DHT22;12318;51.262;7.066;2022-07-15T00:15:51;14.80;99.90
24162;DHT22;12318;51.262;7.066;2022-07-15T00:18:17;14.80;99.90
24162;DHT22;12318;51.262;7.066;2022-07-15T00:20:43;14.70;99.90
24162;DHT22;12318;51.262;7.066;2022-07-15T00:23:09;14.60;99.90
24162;DHT22;12318;51.262;7.066;2022-07-15T00:25:53;14.50;99.90
24162;DHT22;12318;51.262;7.066;2022-07-15T00:28:19;14.50;99.90
24162;DHT22;12318;51.262;7.066;2022-07-15T00:30:44;14.60;99.90
24162;DHT22;12318;51.262;7.066;2022-07-15T00:33:10;14.50;99.90
24162;DHT22;12318;51.262;7.066;2022-07-15T00:35:43;14.70;99.90
24162;DHT22;12318;51.262;7.066;2022-07-15T00:38:10;14.70;99.90
24162;DHT22;12318;51.262;7.066;2022-07-15T00:40:41;14.80;99.90
24162;DHT22;12318;51.262;7.066;2022-07-15T00:43:07;14.90;99.90
24162;DHT22;12318;51.262;7.066;2022-07-15T00:45:33;14.90;99.90
24162;DHT22;12318;51.262;7.066;2022-07-15T00:47:59;15.00;99.90
24162;DHT22;12318;51.262;7.066;2022-07-15T00:50:27;15.00;99.90
24162;DHT22;12318;51.262;7.066;2022-07-15T00:55:40;15.10;99.90
24162;DHT22;12318;51.262;7.066;2022-07-15T00:58:07;15.00;99.90
24162;DHT22;12318;51.262;7.066;2022-07-15T01:00:34;14.80;99.90
24162;DHT22;12318;51.262;7.066;2022-07-15T01:03:00;14.70;99.90
24162;DHT22;12318;51.262;7.066;2022-07-15T01:05:32;14.60;99.90
24162;DHT22;12318;51.262;7.066;2022-07-15T01:07:57;14.70;99.90
24162;DHT22;12318;51.262;7.066;2022-07-15T01:10:23;14.70;99.90
24162;DHT22;12318;51.262;7.066;2022-07-15T01:12:50;14.60;99.90
24162;DHT22;12318;51.262;7.066;2022-07-15T01:15:19;14.60;99.90
24162;DHT22;12318;51.262;7.066;2022-07-15T01:17:45;14.60;99.90
24162;DHT22;12318;51.262;7.066;2022-07-15T01:20:12;14.70;99.90
24162;DHT22;12318;51.262;7.066;2022-07-15T01:22:39;14.70;99.90
24162;DHT22;12318;51.262;7.066;2022-07-15T01:25:10;14.50;99.90
24162;DHT22;12318;51.262;7.066;2022-07-15T01:27:36;14.40;99.90
24162;DHT22;12318;51.262;7.066;2022-07-15T01:30:03;14.40;99.90
24162;DHT22;12318;51.262;7.066;2022-07-15T01:32:29;14.20;99.90
24162;DHT22;12318;51.262;7.066;2022-07-15T01:35:27;14.00;99.90
24162;DHT22;12318;51.262;7.066;2022-07-15T01:37:54;14.00;99.90
24162;DHT22;12318;51.262;7.066;2022-07-15T01:40:19;14.00;99.90
24162;DHT22;12318;51.262;7.066;2022-07-15T01:42:45;14.10;99.90
24162;DHT22;12318;51.262;7.066;2022-07-15T01:45:16;14.10;99.90
24162;DHT22;12318;51.262;7.066;2022-07-15T01:47:47;13.90;99.90
24162;DHT22;12318;51.262;7.066;2022-07-15T01:50:14;13.90;99.90
24162;DHT22;12318;51.262;7.066;2022-07-15T01:52:41;13.90;99.90
24162;DHT22;12318;51.262;7.066;2022-07-15T01:55:18;13.90;99.90
24162;DHT22;12318;51.262;7.066;2022-07-15T01:57:44;13.80;99.90
24162;DHT22;12318;51.262;7.066;2022-07-15T02:00:10;13.80;99.90
24162;DHT22;12318;51.262;7.066;2022-07-15T02:02:37;13.80;99.90
24162;DHT22;12318;51.262;7.066;2022-07-15T02:05:05;13.80;99.90
24162;DHT22;12318;51.262;7.066;2022-07-15T02:07:31;13.80;99.90
24162;DHT22;12318;51.262;7.066;2022-07-15T02:09:57;13.80;99.90
24162;DHT22;12318;51.262;7.066;2022-07-15T02:12:23;13.90;99.90
24162;DHT22;12318;51.262;7.066;2022-07-15T02:14:49;13.90;99.90
24162;DHT22;12318;51.262;7.066;2022-07-15T02:17:14;13.90;99.90
24162;DHT22;12318;51.262;7.066;2022-07-15T02:19:40;13.90;99.90
24162;DHT22;12318;51.262;7.066;2022-07-15T02:22:06;13.90;99.90
24162;DHT22;12318;51.262;7.066;2022-07-15T02:25:04;13.90;99.90
24162;DHT22;12318;51.262;7.066;2022-07-15T02:27:29;13.90;99.90
24162;DHT22;12318;51.262;7.066;2022-07-15T02:29:55;13.80;99.90
24162;DHT22;12318;51.262;7.066;2022-07-15T02:32:21;13.90;99.90
24162;DHT22;12318;51.262;7.066;2022-07-15T02:35:04;14.10;99.90
24162;DHT22;12318;51.262;7.066;2022-07-15T02:37:30;14.10;99.90
24162;DHT22;12318;51.262;7.066;2022-07-15T02:39:56;14.10;99.90
24162;DHT22;12318;51.262;7.066;2022-07-15T02:42:22;14.20;99.90
24162;DHT22;12318;51.262;7.066;2022-07-15T02:44:48;14.20;99.90
24162;DHT22;12318;51.262;7.066;2022-07-15T02:47:14;14.20;99.90
24162;DHT22;12318;51.262;7.066;2022-07-15T02:49:39;14.10;99.90
24162;DHT22;12318;51.262;7.066;2022-07-15T02:52:05;13.90;99.90
24162;DHT22;12318;51.262;7.066;2022-07-15T02:54:31;13.90;99.90
24162;DHT22;12318;51.262;7.066;2022-07-15T02:56:57;13.80;99.90
24162;DHT22;12318;51.262;7.066;2022-07-15T02:59:23;13.90;99.90
24162;DHT22;12318;51.262;7.066;2022-07-15T03:01:48;13.90;99.90
24162;DHT22;12318;51.262;7.066;2022-07-15T03:04:19;13.90;99.90
24162;DHT22;12318;51.262;7.066;2022-07-15T03:06:44;14.00;99.90
24162;DHT22;12318;51.262;7.066;2022-07-15T03:09:10;13.80;99.90
24162;DHT22;12318;51.262;7.066;2022-07-15T03:11:36;13.80;99.90
24162;DHT22;12318;51.262;7.066;2022-07-15T03:14:03;13.80;99.90
24162;DHT22;12318;51.262;7.066;2022-07-15T03:16:29;13.90;99.90
24162;DHT22;12318;51.262;7.066;2022-07-15T03:18:54;13.90;99.90
24162;DHT22;12318;51.262;7.066;2022-07-15T03:21:26;13.90;99.90
24162;DHT22;12318;51.262;7.066;2022-07-15T03:23:51;13.80;99.90
24162;DHT22;12318;51.262;7.066;2022-07-15T03:26:17;13.90;99.90
24162;DHT22;12318;51.262;7.066;2022-07-15T03:28:43;13.90;99.90
24162;DHT22;12318;51.262;7.066;2022-07-15T03:31:10;13.80;99.90
24162;DHT22;12318;51.262;7.066;2022-07-15T03:33:45;13.80;99.90
24162;DHT22;12318;51.262;7.066;2022-07-15T03:36:10;13.70;99.90
24162;DHT22;12318;51.262;7.066;2022-07-15T03:38:36;13.70;99.90
24162;DHT22;12318;51.262;7.066;2022-07-15T03:41:02;13.80;99.90
24162;DHT22;12318;51.262;7.066;2022-07-15T03:43:36;13.70;99.90
24162;DHT22;12318;51.262;7.066;2022-07-15T03:46:02;13.80;99.90
24162;DHT22;12318;51.262;7.066;2022-07-15T03:48:28;13.70;99.90
24162;DHT22;12318;51.262;7.066;2022-07-15T03:50:54;13.60;99.90
24162;DHT22;12318;51.262;7.066;2022-07-15T03:53:19;13.50;99.90
24162;DHT22;12318;51.262;7.066;2022-07-15T03:55:51;13.30;99.90
24162;DHT22;12318;51.262;7.066;2022-07-15T03:58:17;13.20;99.90
24162;DHT22;12318;51.262;7.066;2022-07-15T04:00:43;13.30;99.90
24162;DHT22;12318;51.262;7.066;2022-07-15T04:03:08;13.20;99.90
24162;DHT22;12318;51.262;7.066;2022-07-15T04:05:34;13.10;99.90
24162;DHT22;12318;51.262;7.066;2022-07-15T04:08:00;13.10;99.90
24162;DHT22;12318;51.262;7.066;2022-07-15T04:10:26;13.30;99.90
24162;DHT22;12318;51.262;7.066;2022-07-15T04:12:52;13.10;99.90
24162;DHT22;12318;51.262;7.066;2022-07-15T04:15:26;13.20;99.90
24162;DHT22;12318;51.262;7.066;2022-07-15T04:17:51;13.30;99.90
24162;DHT22;12318;51.262;7.066;2022-07-15T04:20:17;13.30;99.90
24162;DHT22;12318;51.262;7.066;2022-07-15T04:22:44;13.40;99.90
24162;DHT22;12318;51.262;7.066;2022-07-15T04:25:14;13.30;99.90
24162;DHT22;12318;51.262;7.066;2022-07-15T04:27:40;13.20;99.90
24162;DHT22;12318;51.262;7.066;2022-07-15T04:30:09;13.20;99.90
24162;DHT22;12318;51.262;7.066;2022-07-15T04:32:35;13.30;99.90
24162;DHT22;12318;51.262;7.066;2022-07-15T04:35:01;13.70;99.90
24162;DHT22;12318;51.262;7.066;2022-07-15T04:37:28;13.90;99.90
24162;DHT22;12318;51.262;7.066;2022-07-15T04:39:54;13.90;99.90
24162;DHT22;12318;51.262;7.066;2022-07-15T04:42:20;13.80;99.90
24162;DHT22;12318;51.262;7.066;2022-07-15T04:44:46;14.20;99.90
24162;DHT22;12318;51.262;7.066;2022-07-15T04:47:13;14.20;99.90
24162;DHT22;12318;51.262;7.066;2022-07-15T04:49:39;14.70;99.90
24162;DHT22;12318;51.262;7.066;2022-07-15T04:52:23;14.90;99.90
24162;DHT22;12318;51.262;7.066;2022-07-15T04:54:50;15.20;99.90
24162;DHT22;12318;51.262;7.066;2022-07-15T04:57:16;15.00;99.90
24162;DHT22;12318;51.262;7.066;2022-07-15T04:59:42;15.30;99.90
24162;DHT22;12318;51.262;7.066;2022-07-15T05:02:08;15.30;99.90
24162;DHT22;12318;51.262;7.066;2022-07-15T05:04:34;15.70;99.90
24162;DHT22;12318;51.262;7.066;2022-07-15T05:07:00;15.50;99.90
24162;DHT22;12318;51.262;7.066;2022-07-15T05:09:26;15.20;99.90
24162;DHT22;12318;51.262;7.066;2022-07-15T05:11:51;15.30;99.90
24162;DHT22;12318;51.262;7.066;2022-07-15T05:14:18;15.70;99.90
24162;DHT22;12318;51.262;7.066;2022-07-15T05:16:43;15.70;99.90
24162;DHT22;12318;51.262;7.066;2022-07-15T05:19:09;15.60;99.90
24162;DHT22;12318;51.262;7.066;2022-07-15T05:21:35;15.60;99.90
24162;DHT22;12318;51.262;7.066;2022-07-15T05:24:01;16.20;99.90
24162;DHT22;12318;51.262;7.066;2022-07-15T05:26:27;16.10;99.90
24162;DHT22;12318;51.262;7.066;2022-07-15T05:28:52;15.80;99.90
24162;DHT22;12318;51.262;7.066;2022-07-15T05:31:18;15.30;99.90
24162;DHT22;12318;51.262;7.066;2022-07-15T05:33:44;15.30;99.90
24162;DHT22;12318;51.262;7.066;2022-07-15T05:36:14;15.40;99.90
24162;DHT22;12318;51.262;7.066;2022-07-15T05:38:41;15.40;99.90
24162;DHT22;12318;51.262;7.066;2022-07-15T05:41:07;15.70;99.90
24162;DHT22;12318;51.262;7.066;2022-07-15T05:43:35;15.90;99.90
24162;DHT22;12318;51.262;7.066;2022-07-15T05:46:01;15.80;99.90
24162;DHT22;12318;51.262;7.066;2022-07-15T05:48:26;15.80;99.90
24162;DHT22;12318;51.262;7.066;2022-07-15T05:50:52;15.90;99.90
24162;DHT22;12318;51.262;7.066;2022-07-15T05:53:18;15.80;99.90
24162;DHT22;12318;51.262;7.066;2022-07-15T05:55:44;15.80;99.90
24162;DHT22;12318;51.262;7.066;2022-07-15T05:58:10;15.60;99.90
24162;DHT22;12318;51.262;7.066;2022-07-15T06:00:36;15.60;99.90
24162;DHT22;12318;51.262;7.066;2022-07-15T06:03:03;15.80;99.90
24162;DHT22;12318;51.262;7.066;2022-07-15T06:05:30;15.90;99.90
24162;DHT22;12318;51.262;7.066;2022-07-15T06:07:56;15.90;99.90
24162;DHT22;12318;51.262;7.066;2022-07-15T06:10:22;15.70;99.90
24162;DHT22;12318;51.262;7.066;2022-07-15T06:12:48;15.90;99.90
24162;DHT22;12318;51.262;7.066;2022-07-15T06:15:14;16.00;99.90
24162;DHT22;12318;51.262;7.066;2022-07-15T06:17:40;15.80;99.90
24162;DHT22;12318;51.262;7.066;2022-07-15T06:20:06;15.40;99.90
24162;DHT22;12318;51.262;7.066;2022-07-15T06:22:33;15.20;99.90
24162;DHT22;12318;51.262;7.066;2022-07-15T06:24:59;15.50;99.90
24162;DHT22;12318;51.262;7.066;2022-07-15T06:27:25;15.60;99.90
24162;DHT22;12318;51.262;7.066;2022-07-15T06:29:51;15.50;99.90
24162;DHT22;12318;51.262;7.066;2022-07-15T06:32:18;15.40;99.90
24162;DHT22;12318;51.262;7.066;2022-07-15T06:34:44;15.80;99.90
24162;DHT22;12318;51.262;7.066;2022-07-15T06:37:10;15.70;99.90
24162;DHT22;12318;51.262;7.066;2022-07-15T06:39:36;15.80;99.90
24162;DHT22;12318;51.262;7.066;2022-07-15T06:42:02;15.90;99.90
24162;DHT22;12318;51.262;7.066;2022-07-15T06:44:29;16.20;99.90
24162;DHT22;12318;51.262;7.066;2022-07-15T06:46:55;15.90;99.90
24162;DHT22;12318;51.262;7.066;2022-07-15T06:49:22;16.30;99.90
24162;DHT22;12318;51.262;7.066;2022-07-15T06:51:48;16.30;99.90
24162;DHT22;12318;51.262;7.066;2022-07-15T06:54:14;16.20;99.90
24162;DHT22;12318;51.262;7.066;2022-07-15T06:56:40;15.90;99.90
24162;DHT22;12318;51.262;7.066;2022-07-15T06:59:06;16.20;99.90
24162;DHT22;12318;51.262;7.066;2022-07-15T07:01:31;16.60;99.90
24162;DHT22;12318;51.262;7.066;2022-07-15T07:03:58;16.70;99.90
24162;DHT22;12318;51.262;7.066;2022-07-15T07:06:24;17.00;99.90
24162;DHT22;12318;51.262;7.066;2022-07-15T07:08:51;16.80;99.90
24162;DHT22;12318;51.262;7.066;2022-07-15T07:11:18;16.70;99.90
24162;DHT22;12318;51.262;7.066;2022-07-15T07:13:46;16.70;99.90
24162;DHT22;12318;51.262;7.066;2022-07-15T07:16:11;16.80;99.90
24162;DHT22;12318;51.262;7.066;2022-07-15T07:18:37;16.70;99.90
24162;DHT22;12318;51.262;7.066;2022-07-15T07:21:03;17.00;99.90
24162;DHT22;12318;51.262;7.066;2022-07-15T07:23:30;17.00;99.90
24162;DHT22;12318;51.262;7.066;2022-07-15T07:25:57;16.90;99.90
24162;DHT22;12318;51.262;7.066;2022-07-15T07:28:23;16.70;99.90
24162;DHT22;12318;51.262;7.066;2022-07-15T07:30:49;16.50;99.90
24162;DHT22;12318;51.262;7.066;2022-07-15T07:33:16;16.10;99.90
24162;DHT22;12318;51.262;7.066;2022-07-15T07:35:43;16.00;99.90
24162;DHT22;12318;51.262;7.066;2022-07-15T07:38:10;15.90;99.90
24162;DHT22;12318;51.262;7.066;2022-07-15T07:40:35;16.10;99.90
24162;DHT22;12318;51.262;7.066;2022-07-15T07:43:01;16.20;99.90
24162;DHT22;12318;51.262;7.066;2022-07-15T07:45:27;16.40;99.90
24162;DHT22;12318;51.262;7.066;2022-07-15T07:47:56;16.60;99.90
24162;DHT22;12318;51.262;7.066;2022-07-15T07:50:22;16.90;99.90
24162;DHT22;12318;51.262;7.066;2022-07-15T07:52:48;17.20;99.90
24162;DHT22;12318;51.262;7.066;2022-07-15T07:55:21;16.80;99.90
24162;DHT22;12318;51.262;7.066;2022-07-15T07:57:51;16.50;99.90
24162;DHT22;12318;51.262;7.066;2022-07-15T08:00:18;16.50;99.90
24162;DHT22;12318;51.262;7.066;2022-07-15T08:02:45;16.50;99.90
24162;DHT22;12318;51.262;7.066;2022-07-15T08:05:12;16.70;99.90
24162;DHT22;12318;51.262;7.066;2022-07-15T08:07:38;16.60;99.90
24162;DHT22;12318;51.262;7.066;2022-07-15T08:10:05;16.50;99.90
24162;DHT22;12318;51.262;7.066;2022-07-15T08:12:31;16.60;99.90
24162;DHT22;12318;51.262;7.066;2022-07-15T08:14:58;17.00;99.90
24162;DHT22;12318;51.262;7.066;2022-07-15T08:17:25;17.00;99.90
24162;DHT22;12318;51.262;7.066;2022-07-15T08:19:51;16.90;99.90
24162;DHT22;12318;51.262;7.066;2022-07-15T08:22:17;17.00;99.90
24162;DHT22;12318;51.262;7.066;2022-07-15T08:24:44;17.10;99.90
24162;DHT22;12318;51.262;7.066;2022-07-15T08:27:10;17.20;99.90
24162;DHT22;12318;51.262;7.066;2022-07-15T08:29:36;17.50;99.90
24162;DHT22;12318;51.262;7.066;2022-07-15T08:32:02;17.70;99.90
24162;DHT22;12318;51.262;7.066;2022-07-15T08:34:28;17.80;99.90
24162;DHT22;12318;51.262;7.066;2022-07-15T08:36:54;17.90;99.90
24162;DHT22;12318;51.262;7.066;2022-07-15T08:39:20;18.00;99.90
24162;DHT22;12318;51.262;7.066;2022-07-15T08:41:45;17.90;99.90
24162;DHT22;12318;51.262;7.066;2022-07-15T08:44:11;18.20;99.90
24162;DHT22;12318;51.262;7.066;2022-07-15T08:46:38;18.00;99.90
24162;DHT22;12318;51.262;7.066;2022-07-15T08:49:08;17.70;99.90
24162;DHT22;12318;51.262;7.066;2022-07-15T08:51:46;17.30;99.90
24162;DHT22;12318;51.262;7.066;2022-07-15T08:54:13;17.30;99.90
24162;DHT22;12318;51.262;7.066;2022-07-15T08:56:39;17.60;99.90
24162;DHT22;12318;51.262;7.066;2022-07-15T08:59:06;17.80;99.90
24162;DHT22;12318;51.262;7.066;2022-07-15T09:01:33;17.90;99.90
24162;DHT22;12318;51.262;7.066;2022-07-15T09:04:00;18.00;99.90
24162;DHT22;12318;51.262;7.066;2022-07-15T09:09:33;17.50;99.90
24162;DHT22;12318;51.262;7.066;2022-07-15T09:12:08;17.40;99.90
24162;DHT22;12318;51.262;7.066;2022-07-15T09:14:40;17.40;99.90
24162;DHT22;12318;51.262;7.066;2022-07-15T09:20:00;17.70;99.90
24162;DHT22;12318;51.262;7.066;2022-07-15T09:22:29;17.80;99.90
24162;DHT22;12318;51.262;7.066;2022-07-15T09:25:10;17.80;99.90
24162;DHT22;12318;51.262;7.066;2022-07-15T09:27:41;17.50;99.90
24162;DHT22;12318;51.262;7.066;2022-07-15T09:33:00;17.30;99.90
24162;DHT22;12318;51.262;7.066;2022-07-15T09:35:47;17.30;99.90
24162;DHT22;12318;51.262;7.066;2022-07-15T09:41:33;17.40;99.90
24162;DHT22;12318;51.262;7.066;2022-07-15T09:44:03;17.40;99.90
24162;DHT22;12318;51.262;7.066;2022-07-15T09:54:19;18.60;99.90
24162;DHT22;12318;51.262;7.066;2022-07-15T09:56:46;18.60;99.90
24162;DHT22;12318;51.262;7.066;2022-07-15T09:59:12;18.50;99.90
24162;DHT22;12318;51.262;7.066;2022-07-15T10:01:37;18.50;99.90
24162;DHT22;12318;51.262;7.066;2022-07-15T10:04:09;18.10;99.90
24162;DHT22;12318;51.262;7.066;2022-07-15T10:06:38;18.40;99.90
24162;DHT22;12318;51.262;7.066;2022-07-15T10:09:05;18.40;99.90
24162;DHT22;12318;51.262;7.066;2022-07-15T10:11:38;18.70;99.90
24162;DHT22;12318;51.262;7.066;2022-07-15T10:25:23;19.10;99.30
24162;DHT22;12318;51.262;7.066;2022-07-15T10:28:08;19.30;99.90
24162;DHT22;12318;51.262;7.066;2022-07-15T10:30:35;19.30;99.90
24162;DHT22;12318;51.262;7.066;2022-07-15T10:33:32;19.40;99.90
24162;DHT22;12318;51.262;7.066;2022-07-15T10:36:03;19.50;99.90
24162;DHT22;12318;51.262;7.066;2022-07-15T10:38:34;19.50;99.90
24162;DHT22;12318;51.262;7.066;2022-07-15T10:43:52;19.90;99.90
24162;DHT22;12318;51.262;7.066;2022-07-15T10:46:19;20.00;99.90
24162;DHT22;12318;51.262;7.066;2022-07-15T10:56:47;20.00;96.60
24162;DHT22;12318;51.262;7.066;2022-07-15T10:59:18;19.70;97.90
24162;DHT22;12318;51.262;7.066;2022-07-15T11:04:35;19.20;99.70
24162;DHT22;12318;51.262;7.066;2022-07-15T11:19:57;20.30;98.50
24162;DHT22;12318;51.262;7.066;2022-07-15T11:22:26;20.40;99.60
24162;DHT22;12318;51.262;7.066;2022-07-15T11:24:55;20.20;97.40
24162;DHT22;12318;51.262;7.066;2022-07-15T11:27:23;19.60;98.00
24162;DHT22;12318;51.262;7.066;2022-07-15T11:29:51;19.50;97.00
24162;DHT22;12318;51.262;7.066;2022-07-15T11:32:19;19.80;98.00
24162;DHT22;12318;51.262;7.066;2022-07-15T11:34:51;19.70;98.50
24162;DHT22;12318;51.262;7.066;2022-07-15T11:37:17;19.90;99.40
24162;DHT22;12318;51.262;7.066;2022-07-15T11:39:48;19.90;98.00
24162;DHT22;12318;51.262;7.066;2022-07-15T11:42:22;19.80;97.50
24162;DHT22;12318;51.262;7.066;2022-07-15T11:45:09;19.70;96.90
24162;DHT22;12318;51.262;7.066;2022-07-15T11:47:51;19.70;97.70
24162;DHT22;12318;51.262;7.066;2022-07-15T11:50:17;19.60;99.00
24162;DHT22;12318;51.262;7.066;2022-07-15T11:52:45;19.90;99.10
24162;DHT22;12318;51.262;7.066;2022-07-15T11:55:11;19.90;96.90
24162;DHT22;12318;51.262;7.066;2022-07-15T11:57:36;20.10;99.30
24162;DHT22;12318;51.262;7.066;2022-07-15T12:00:03;19.80;96.60
24162;DHT22;12318;51.262;7.066;2022-07-15T12:02:29;19.70;97.50
24162;DHT22;12318;51.262;7.066;2022-07-15T12:05:14;20.10;97.10
24162;DHT22;12318;51.262;7.066;2022-07-15T12:07:45;19.70;96.60
24162;DHT22;12318;51.262;7.066;2022-07-15T12:10:12;19.30;99.00
24162;DHT22;12318;51.262;7.066;2022-07-15T12:12:57;19.60;99.30
24162;DHT22;12318;51.262;7.066;2022-07-15T12:15:23;19.90;99.10
24162;DHT22;12318;51.262;7.066;2022-07-15T12:17:49;19.90;99.80
24162;DHT22;12318;51.262;7.066;2022-07-15T12:20:15;20.10;97.80
24162;DHT22;12318;51.262;7.066;2022-07-15T12:23:07;20.40;99.10
24162;DHT22;12318;51.262;7.066;2022-07-15T12:25:46;20.40;96.90
24162;DHT22;12318;51.262;7.066;2022-07-15T12:28:11;20.60;97.40
24162;DHT22;12318;51.262;7.066;2022-07-15T12:30:38;19.80;96.10
24162;DHT22;12318;51.262;7.066;2022-07-15T12:33:32;19.60;96.60
24162;DHT22;12318;51.262;7.066;2022-07-15T12:36:16;19.60;97.00
24162;DHT22;12318;51.262;7.066;2022-07-15T12:38:42;19.70;97.70
24162;DHT22;12318;51.262;7.066;2022-07-15T12:41:40;19.90;97.70
24162;DHT22;12318;51.262;7.066;2022-07-15T12:44:07;20.20;98.50
24162;DHT22;12318;51.262;7.066;2022-07-15T12:46:50;20.10;96.90
24162;DHT22;12318;51.262;7.066;2022-07-15T12:49:42;20.30;95.20
24162;DHT22;12318;51.262;7.066;2022-07-15T12:52:22;20.30;95.80
24162;DHT22;12318;51.262;7.066;2022-07-15T12:54:50;20.20;95.20
24162;DHT22;12318;51.262;7.066;2022-07-15T12:58:01;20.30;95.00
24162;DHT22;12318;51.262;7.066;2022-07-15T13:00:18;20.00;96.20
24162;DHT22;12318;51.262;7.066;2022-07-15T13:05:30;19.90;96.10
24162;DHT22;12318;51.262;7.066;2022-07-15T13:07:56;20.00;95.70
24162;DHT22;12318;51.262;7.066;2022-07-15T13:10:21;20.20;96.70
24162;DHT22;12318;51.262;7.066;2022-07-15T13:12:47;19.80;96.10
24162;DHT22;12318;51.262;7.066;2022-07-15T13:15:13;19.80;96.00
24162;DHT22;12318;51.262;7.066;2022-07-15T13:17:39;20.10;94.40
24162;DHT22;12318;51.262;7.066;2022-07-15T13:20:05;20.60;94.60
24162;DHT22;12318;51.262;7.066;2022-07-15T13:22:41;20.70;93.50
24162;DHT22;12318;51.262;7.066;2022-07-15T13:25:07;21.10;92.50
24162;DHT22;12318;51.262;7.066;2022-07-15T13:27:33;21.10;92.30
24162;DHT22;12318;51.262;7.066;2022-07-15T13:29:58;21.20;91.70
24162;DHT22;12318;51.262;7.066;2022-07-15T13:32:25;21.30;92.20
24162;DHT22;12318;51.262;7.066;2022-07-15T13:34:52;21.40;91.80
24162;DHT22;12318;51.262;7.066;2022-07-15T13:37:17;21.30;91.70
24162;DHT22;12318;51.262;7.066;2022-07-15T13:39:43;21.40;90.50
24162;DHT22;12318;51.262;7.066;2022-07-15T13:42:09;21.90;92.60
24162;DHT22;12318;51.262;7.066;2022-07-15T13:44:36;22.00;90.00
24162;DHT22;12318;51.262;7.066;2022-07-15T13:47:01;22.20;90.40
24162;DHT22;12318;51.262;7.066;2022-07-15T13:49:27;22.40;89.90
24162;DHT22;12318;51.262;7.066;2022-07-15T13:52:11;22.40;90.40
24162;DHT22;12318;51.262;7.066;2022-07-15T13:54:46;21.70;90.50
24162;DHT22;12318;51.262;7.066;2022-07-15T13:57:12;21.20;91.70
24162;DHT22;12318;51.262;7.066;2022-07-15T13:59:38;20.60;91.00
24162;DHT22;12318;51.262;7.066;2022-07-15T14:02:04;20.50;91.60
24162;DHT22;12318;51.262;7.066;2022-07-15T14:04:32;20.70;91.90
24162;DHT22;12318;51.262;7.066;2022-07-15T14:06:58;20.60;92.40
24162;DHT22;12318;51.262;7.066;2022-07-15T14:09:23;20.30;90.40
24162;DHT22;12318;51.262;7.066;2022-07-15T14:11:49;20.10;92.00
24162;DHT22;12318;51.262;7.066;2022-07-15T14:14:15;20.20;91.20
24162;DHT22;12318;51.262;7.066;2022-07-15T14:16:41;20.30;92.10
24162;DHT22;12318;51.262;7.066;2022-07-15T14:19:07;20.50;92.90
24162;DHT22;12318;51.262;7.066;2022-07-15T14:21:33;20.10;92.40
24162;DHT22;12318;51.262;7.066;2022-07-15T14:24:00;20.00;93.20
24162;DHT22;12318;51.262;7.066;2022-07-15T14:26:26;19.90;92.60
24162;DHT22;12318;51.262;7.066;2022-07-15T14:28:51;19.90;92.80
24162;DHT22;12318;51.262;7.066;2022-07-15T14:31:17;19.70;92.50
24162;DHT22;12318;51.262;7.066;2022-07-15T14:33:43;19.70;93.20
24162;DHT22;12318;51.262;7.066;2022-07-15T14:36:10;19.70;94.00
24162;DHT22;12318;51.262;7.066;2022-07-15T14:38:38;19.60;93.60
24162;DHT22;12318;51.262;7.066;2022-07-15T14:41:05;19.60;92.70
24162;DHT22;12318;51.262;7.066;2022-07-15T14:43:37;19.60;93.40
24162;DHT22;12318;51.262;7.066;2022-07-15T14:46:03;19.60;92.90
24162;DHT22;12318;51.262;7.066;2022-07-15T14:48:29;19.70;92.70
24162;DHT22;12318;51.262;7.066;2022-07-15T14:50:55;19.70;92.00
24162;DHT22;12318;51.262;7.066;2022-07-15T14:53:21;20.00;93.40
24162;DHT22;12318;51.262;7.066;2022-07-15T14:55:47;19.90;92.20
24162;DHT22;12318;51.262;7.066;2022-07-15T14:58:13;19.90;92.90
24162;DHT22;12318;51.262;7.066;2022-07-15T15:00:42;20.00;93.10
24162;DHT22;12318;51.262;7.066;2022-07-15T15:03:08;20.20;91.60
24162;DHT22;12318;51.262;7.066;2022-07-15T15:05:35;20.20;91.80
24162;DHT22;12318;51.262;7.066;2022-07-15T15:08:01;20.30;91.60
24162;DHT22;12318;51.262;7.066;2022-07-15T15:10:26;20.20;91.60
24162;DHT22;12318;51.262;7.066;2022-07-15T15:12:52;20.30;91.50
24162;DHT22;12318;51.262;7.066;2022-07-15T15:15:20;20.10;91.50
24162;DHT22;12318;51.262;7.066;2022-07-15T15:17:47;20.10;92.00
24162;DHT22;12318;51.262;7.066;2022-07-15T15:20:13;20.20;92.20
24162;DHT22;12318;51.262;7.066;2022-07-15T15:22:40;20.10;92.80
24162;DHT22;12318;51.262;7.066;2022-07-15T15:25:08;20.00;92.20
24162;DHT22;12318;51.262;7.066;2022-07-15T15:27:34;20.10;93.20
24162;DHT22;12318;51.262;7.066;2022-07-15T15:30:00;20.40;92.40
24162;DHT22;12318;51.262;7.066;2022-07-15T15:32:27;20.60;91.40
24162;DHT22;12318;51.262;7.066;2022-07-15T15:34:53;20.60;92.30
24162;DHT22;12318;51.262;7.066;2022-07-15T15:37:19;20.60;92.60
24162;DHT22;12318;51.262;7.066;2022-07-15T15:39:45;20.40;91.30
24162;DHT22;12318;51.262;7.066;2022-07-15T15:42:12;20.30;92.00
24162;DHT22;12318;51.262;7.066;2022-07-15T15:44:38;20.50;91.70
24162;DHT22;12318;51.262;7.066;2022-07-15T15:47:04;20.60;90.80
24162;DHT22;12318;51.262;7.066;2022-07-15T15:49:30;20.70;92.00
24162;DHT22;12318;51.262;7.066;2022-07-15T15:51:56;21.60;92.60
24162;DHT22;12318;51.262;7.066;2022-07-15T15:54:24;22.40;91.80
24162;DHT22;12318;51.262;7.066;2022-07-15T15:56:51;23.10;87.60
24162;DHT22;12318;51.262;7.066;2022-07-15T15:59:17;22.20;86.20
24162;DHT22;12318;51.262;7.066;2022-07-15T16:01:42;22.10;88.90
24162;DHT22;12318;51.262;7.066;2022-07-15T16:04:08;22.50;86.50
24162;DHT22;12318;51.262;7.066;2022-07-15T16:06:34;22.80;87.00
24162;DHT22;12318;51.262;7.066;2022-07-15T16:08:59;23.00;85.00
24162;DHT22;12318;51.262;7.066;2022-07-15T16:11:25;22.80;83.90
24162;DHT22;12318;51.262;7.066;2022-07-15T16:13:51;22.50;86.10
24162;DHT22;12318;51.262;7.066;2022-07-15T16:16:17;22.60;85.60
24162;DHT22;12318;51.262;7.066;2022-07-15T16:18:43;23.10;85.40
24162;DHT22;12318;51.262;7.066;2022-07-15T16:21:09;23.00;82.60
24162;DHT22;12318;51.262;7.066;2022-07-15T16:23:37;23.40;84.10
24162;DHT22;12318;51.262;7.066;2022-07-15T16:26:03;23.30;83.20
24162;DHT22;12318;51.262;7.066;2022-07-15T16:28:29;23.30;83.20
24162;DHT22;12318;51.262;7.066;2022-07-15T16:30:55;23.30;83.80
24162;DHT22;12318;51.262;7.066;2022-07-15T16:33:20;23.10;88.20
24162;DHT22;12318;51.262;7.066;2022-07-15T16:35:46;22.30;89.30
24162;DHT22;12318;51.262;7.066;2022-07-15T16:38:12;22.20;86.60
24162;DHT22;12318;51.262;7.066;2022-07-15T16:40:39;22.10;87.10